createdAt,value
2023-03-12T00:00:17.108Z,2.72
2023-03-12T00:05:20.193Z,3.40
2023-03-12T00:10:23.262Z,2.90
2023-03-12T00:15:26.475Z,3.63
2023-03-12T00:20:29.485Z,2.45
2023-03-12T00:25:33.315Z,2.85
2023-03-12T00:30:36.872Z,2.58
2023-03-12T00:35:40.434Z,3.33
2023-03-12T00:40:43.860Z,3.03
2023-03-12T00:45:47.322Z,2.05
2023-03-12T00:50:50.670Z,3.63
2023-03-12T00:55:54.145Z,3.33
2023-03-12T01:00:57.330Z,4.80
2023-03-12T01:06:01.002Z,2.47
2023-03-12T01:11:05.007Z,3.17
2023-03-12T01:16:08.755Z,4.03
2023-03-12T01:21:13.953Z,3.30
2023-03-12T01:26:17.666Z,2.97
2023-03-12T01:31:20.951Z,4.20
2023-03-12T01:36:31.067Z,3.50
2023-03-12T01:41:34.403Z,3.20
2023-03-12T01:46:39.642Z,3.45
2023-03-12T01:52:04.070Z,2.50
2023-03-12T01:57:17.419Z,2.70
2023-03-12T02:02:27.237Z,3.20
2023-03-12T02:07:30.686Z,2.92
2023-03-12T02:12:34.383Z,2.55
2023-03-12T02:17:40.654Z,2.53
2023-03-12T02:22:50.035Z,2.55
2023-03-12T02:27:54.020Z,2.95
2023-03-12T02:33:00.376Z,3.13
2023-03-12T02:38:32.954Z,2.43
2023-03-12T02:43:36.169Z,2.70
2023-03-12T02:48:40.115Z,2.67
2023-03-12T02:53:43.461Z,3.00
2023-03-12T02:58:47.125Z,2.67
2023-03-12T03:03:51.543Z,3.22
2023-03-12T03:08:54.801Z,2.17
2023-03-12T03:13:58.718Z,3.10
2023-03-12T03:19:02.975Z,1.77
2023-03-12T03:24:06.818Z,2.05
2023-03-12T03:29:13.397Z,2.33
2023-03-12T03:34:17.105Z,1.27
2023-03-12T03:39:20.471Z,1.90
2023-03-12T03:44:24.311Z,2.55
2023-03-12T03:49:29.192Z,2.42
2023-03-12T03:54:34.118Z,2.08
2023-03-12T03:59:37.520Z,2.53
2023-03-12T04:04:41.242Z,2.40
2023-03-12T04:09:45.725Z,2.13
2023-03-12T04:14:49.288Z,1.85
2023-03-12T04:19:52.596Z,2.53
2023-03-12T04:24:57.113Z,5.18
2023-03-12T04:30:02.855Z,3.40
2023-03-12T04:35:08.902Z,3.15
2023-03-12T04:40:12.513Z,3.30
2023-03-12T04:45:16.186Z,2.53
2023-03-12T04:50:22.806Z,1.73
2023-03-12T04:55:25.958Z,2.00
2023-03-12T05:00:30.153Z,2.53
2023-03-12T05:05:34.222Z,2.00
2023-03-12T05:10:38.024Z,2.05
2023-03-12T05:15:42.154Z,1.98
2023-03-12T05:20:45.961Z,2.28
2023-03-12T05:25:49.755Z,2.38
2023-03-12T05:30:53.076Z,2.08
2023-03-12T05:35:56.667Z,2.95
2023-03-12T05:41:00.955Z,2.00
2023-03-12T05:46:06.751Z,1.90
2023-03-12T05:51:11.592Z,2.10
2023-03-12T05:56:18.035Z,2.30
2023-03-12T06:01:24.504Z,2.22
2023-03-12T06:06:34.697Z,1.98
2023-03-12T06:11:38.409Z,2.58
2023-03-12T06:16:41.736Z,1.75
2023-03-12T06:21:45.400Z,1.00
2023-03-12T06:26:49.626Z,1.33
2023-03-12T06:31:53.681Z,2.92
2023-03-12T06:36:57.380Z,2.10
2023-03-12T06:42:01.551Z,2.40
2023-03-12T06:47:04.884Z,2.70
2023-03-12T06:52:08.094Z,2.25
2023-03-12T06:57:11.455Z,2.20
2023-03-12T07:02:14.992Z,2.60
2023-03-12T07:07:18.571Z,2.25
2023-03-12T07:12:21.717Z,2.10
2023-03-12T07:17:26.079Z,1.80
2023-03-12T07:22:29.802Z,1.88
2023-03-12T07:27:33.316Z,2.20
2023-03-12T07:32:37.149Z,2.10
2023-03-12T07:37:40.405Z,1.98
2023-03-12T07:42:44.639Z,1.90
2023-03-12T07:47:49.556Z,1.60
2023-03-12T07:52:53.312Z,1.48
2023-03-12T07:57:58.789Z,1.67
2023-03-12T08:03:02.242Z,1.80
2023-03-12T08:08:05.824Z,1.50
2023-03-12T08:13:09.316Z,1.42
2023-03-12T08:18:13.738Z,2.10
2023-03-12T08:28:24.677Z,1.65
2023-03-12T08:33:28.201Z,1.63
2023-03-12T08:38:31.900Z,2.03
2023-03-12T08:55:12.760Z,1.70
2023-03-12T09:00:18.249Z,1.58
2023-03-12T09:05:21.839Z,1.38
2023-03-12T09:10:30.204Z,1.45
2023-03-12T09:15:34.694Z,1.88
2023-03-12T09:20:47.713Z,2.08
2023-03-12T09:25:53.041Z,2.05
2023-03-12T09:30:57.058Z,1.80
2023-03-12T09:36:01.219Z,1.70
2023-03-12T09:41:06.718Z,1.95
2023-03-12T09:46:18.325Z,1.75
2023-03-12T09:51:29.292Z,1.63
2023-03-12T09:56:34.741Z,2.17
2023-03-12T10:01:49.405Z,1.85
2023-03-12T10:07:11.705Z,2.20
2023-03-12T10:12:38.114Z,2.20
2023-03-12T10:17:53.161Z,1.67
2023-03-12T10:23:02.195Z,1.83
2023-03-12T10:28:13.901Z,2.38
2023-03-12T10:33:19.100Z,1.77
2023-03-12T10:38:29.733Z,2.20
2023-03-12T10:43:35.806Z,1.70
2023-03-12T10:48:39.548Z,2.20
2023-03-12T10:53:48.551Z,2.08
2023-03-12T10:58:54.057Z,1.55
2023-03-12T11:04:40.874Z,1.75
2023-03-12T11:09:45.484Z,2.08
2023-03-12T11:14:48.758Z,1.90
2023-03-12T11:19:53.502Z,2.25
2023-03-12T11:25:08.301Z,2.50
2023-03-12T11:30:16.707Z,2.30
2023-03-12T11:35:41.922Z,2.55
2023-03-12T11:41:00.408Z,2.05
2023-03-12T11:46:06.216Z,2.67
2023-03-12T11:56:30.165Z,3.00
2023-03-12T12:01:51.533Z,2.03
2023-03-12T12:07:22.943Z,2.85
2023-03-12T12:12:40.282Z,4.22
2023-03-12T12:18:02.700Z,2.38
2023-03-12T12:23:31.104Z,3.15
2023-03-12T12:29:03.564Z,7.10
2023-03-12T12:34:25.646Z,2.95
2023-03-12T12:39:38.222Z,6.13
2023-03-12T12:44:48.214Z,2.35
2023-03-12T12:50:01.885Z,2.83
2023-03-12T12:55:17.294Z,2.63
2023-03-12T13:00:50.432Z,2.53
2023-03-12T13:05:53.469Z,2.60
2023-03-12T13:11:05.837Z,2.05
2023-03-12T13:16:36.207Z,2.75
2023-03-12T13:22:12.960Z,2.30
2023-03-12T13:27:30.163Z,2.63
2023-03-12T13:32:37.422Z,2.42
2023-03-12T13:37:52.646Z,2.72
2023-03-12T13:43:31.329Z,2.35
2023-03-12T13:48:36.940Z,3.65
2023-03-12T13:53:40.904Z,2.23
2023-03-12T13:59:05.449Z,3.05
2023-03-12T14:04:16.599Z,2.85
2023-03-12T14:09:24.768Z,2.40
2023-03-12T14:14:53.347Z,2.72
2023-03-12T14:20:13.812Z,2.83
2023-03-12T14:25:26.117Z,3.08
2023-03-12T14:30:44.297Z,3.33
2023-03-12T14:35:53.928Z,2.95
2023-03-12T14:41:06.263Z,3.28
2023-03-12T14:46:19.659Z,3.28
2023-03-12T14:51:25.057Z,3.30
2023-03-12T14:56:30.847Z,3.03
2023-03-12T15:01:39.790Z,2.97
2023-03-12T15:06:55.858Z,4.05
2023-03-12T15:12:09.104Z,3.47
2023-03-12T15:17:24.526Z,2.70
2023-03-12T15:22:28.290Z,3.47
2023-03-12T15:27:34.136Z,3.00
2023-03-12T15:32:37.822Z,2.90
2023-03-12T15:37:43.248Z,3.30
2023-03-12T15:42:48.225Z,2.95
2023-03-12T15:47:54.612Z,2.25
2023-03-12T15:53:31.344Z,2.58
2023-03-12T15:58:41.424Z,3.63
2023-03-12T16:03:46.122Z,2.53
2023-03-12T16:08:53.397Z,2.33
2023-03-12T16:14:22.430Z,2.13
2023-03-12T16:19:29.671Z,3.20
2023-03-12T16:24:33.040Z,2.10
2023-03-12T16:29:38.521Z,2.35
2023-03-12T16:34:43.184Z,2.55
2023-03-12T16:39:46.806Z,2.45
2023-03-12T16:44:49.979Z,2.10
2023-03-12T16:49:53.103Z,1.70
2023-03-12T16:54:56.724Z,2.28
2023-03-12T17:00:02.324Z,2.50
2023-03-12T17:05:06.703Z,2.30
2023-03-12T17:10:11.641Z,2.63
2023-03-12T17:15:17.891Z,3.35
2023-03-12T17:20:23.543Z,3.87
2023-03-12T17:25:29.369Z,3.95
2023-03-12T17:30:34.695Z,7.13
2023-03-12T17:35:40.106Z,5.53
2023-03-12T17:40:45.490Z,15.13
2023-03-12T17:45:49.281Z,13.82
2023-03-12T17:50:52.444Z,13.10
2023-03-12T17:55:55.747Z,5.47
2023-03-12T18:01:01.737Z,5.15
2023-03-12T18:06:05.161Z,10.57
2023-03-12T18:11:08.454Z,8.10
2023-03-12T18:16:11.816Z,7.40
2023-03-12T18:21:15.367Z,5.65
2023-03-12T18:26:18.946Z,5.53
2023-03-12T18:31:23.160Z,4.85
2023-03-12T18:36:26.378Z,8.98
2023-03-12T18:41:33.038Z,12.18
2023-03-12T18:46:36.636Z,5.07
2023-03-12T18:51:40.312Z,5.32
2023-03-12T18:56:43.526Z,4.55
2023-03-12T19:01:46.748Z,6.38
2023-03-12T19:06:51.912Z,6.57
2023-03-12T19:11:55.826Z,5.47
2023-03-12T19:16:59.428Z,3.92
2023-03-12T19:22:03.877Z,5.40
2023-03-12T19:27:06.995Z,3.88
2023-03-12T19:32:11.017Z,4.30
2023-03-12T19:37:14.239Z,4.25
2023-03-12T19:42:17.796Z,5.10
2023-03-12T19:47:22.662Z,5.47
2023-03-12T19:52:26.210Z,5.00
2023-03-12T19:57:30.137Z,5.45
2023-03-12T20:02:33.685Z,5.95
2023-03-12T20:07:37.132Z,6.15
2023-03-12T20:12:40.348Z,5.10
2023-03-12T20:17:43.778Z,6.53
2023-03-12T20:22:48.404Z,6.50
2023-03-12T20:27:53.503Z,7.80
2023-03-12T20:32:58.447Z,6.65
2023-03-12T20:38:03.383Z,6.22
2023-03-12T20:43:07.509Z,6.93
2023-03-12T20:48:12.401Z,9.23
2023-03-12T20:53:15.604Z,9.10
2023-03-12T20:58:19.312Z,11.65
2023-03-12T21:03:23.022Z,11.82
2023-03-12T21:08:27.014Z,11.60
2023-03-12T21:13:31.191Z,10.88
2023-03-12T21:18:35.138Z,9.85
2023-03-12T21:23:39.708Z,10.25
2023-03-12T21:28:43.896Z,8.13
2023-03-12T21:33:47.898Z,7.75
2023-03-12T21:38:54.108Z,7.50
2023-03-12T21:44:00.932Z,7.97
2023-03-12T21:49:05.142Z,7.40
2023-03-12T21:54:08.921Z,7.22
2023-03-12T21:59:12.104Z,6.82
2023-03-12T22:04:15.192Z,6.63
2023-03-12T22:09:18.932Z,6.18
2023-03-12T22:14:23.957Z,6.13
2023-03-12T22:19:27.628Z,5.97
2023-03-12T22:24:31.335Z,6.88
2023-03-12T22:29:35.430Z,5.75
2023-03-12T22:34:39.487Z,6.40
2023-03-12T22:39:43.525Z,5.47
2023-03-12T22:44:46.811Z,6.45
2023-03-12T22:49:50.278Z,6.53
2023-03-12T22:54:53.795Z,5.82
2023-03-12T22:59:56.876Z,5.50
2023-03-12T23:04:59.960Z,5.72
2023-03-12T23:10:04.697Z,5.72
2023-03-12T23:15:08.758Z,5.20
2023-03-12T23:20:13.713Z,5.00
2023-03-12T23:25:17.393Z,5.05
2023-03-12T23:30:20.664Z,5.22
2023-03-12T23:35:23.734Z,5.35
2023-03-12T23:40:27.407Z,5.20
2023-03-12T23:45:31.116Z,5.47
2023-03-12T23:50:35.777Z,4.68
2023-03-12T23:55:38.786Z,4.32
